createdAt,value
2022-08-12T00:02:02.028Z,6.55
2022-08-12T00:04:31.290Z,5.28
2022-08-12T00:07:20.235Z,6.00
2022-08-12T00:10:07.921Z,6.22
2022-08-12T00:12:56.243Z,5.43
2022-08-12T00:15:46.191Z,5.32
2022-08-12T00:18:33.307Z,6.38
2022-08-12T00:21:20.650Z,5.85
2022-08-12T00:24:08.527Z,6.20
2022-08-12T00:26:56.692Z,7.80
2022-08-12T00:29:47.810Z,6.63
2022-08-12T00:32:37.364Z,5.68
2022-08-12T00:35:36.446Z,5.75
2022-08-12T00:38:24.348Z,5.63
2022-08-12T00:41:13.146Z,6.57
2022-08-12T00:43:44.948Z,5.15
2022-08-12T00:46:32.914Z,4.68
2022-08-12T00:49:05.553Z,6.22
2022-08-12T00:51:57.019Z,5.65
2022-08-12T00:54:26.974Z,6.20
2022-08-12T00:57:05.687Z,6.72
2022-08-12T00:59:37.318Z,9.70
2022-08-12T01:02:11.412Z,6.82
2022-08-12T01:05:02.590Z,6.15
2022-08-12T01:07:52.653Z,6.90
2022-08-12T01:10:39.912Z,7.53
2022-08-12T01:13:19.407Z,6.10
2022-08-12T01:15:52.604Z,6.13
2022-08-12T01:18:24.043Z,6.55
2022-08-12T01:21:07.769Z,6.30
2022-08-12T01:24:23.025Z,8.82
2022-08-12T01:26:55.962Z,9.52
2022-08-12T01:32:11.695Z,6.95
2022-08-12T01:34:52.213Z,6.88
2022-08-12T01:37:25.809Z,7.75
2022-08-12T01:42:49.651Z,7.05
2022-08-12T01:45:25.002Z,6.70
2022-08-12T01:48:06.236Z,8.23
2022-08-12T01:50:51.954Z,7.30
2022-08-12T01:53:27.759Z,7.57
2022-08-12T01:55:58.722Z,9.93
2022-08-12T01:58:55.060Z,8.63
2022-08-12T02:01:30.549Z,7.10
2022-08-12T02:04:32.004Z,8.40
2022-08-12T02:07:30.822Z,8.00
2022-08-12T02:10:50.997Z,6.75
2022-08-12T02:13:43.807Z,7.70
2022-08-12T02:16:30.444Z,8.75
2022-08-12T02:19:21.887Z,8.32
2022-08-12T02:22:01.776Z,8.10
2022-08-12T02:24:38.656Z,7.60
2022-08-12T02:27:10.200Z,10.10
2022-08-12T02:29:41.290Z,6.95
2022-08-12T02:32:14.565Z,8.02
2022-08-12T02:34:45.881Z,8.18
2022-08-12T02:37:16.925Z,9.52
2022-08-12T02:39:50.642Z,8.43
2022-08-12T02:42:23.708Z,7.53
2022-08-12T02:44:57.764Z,8.55
2022-08-12T02:47:58.317Z,9.93
2022-08-12T02:50:30.089Z,9.05
2022-08-12T02:53:01.265Z,7.32
2022-08-12T02:55:36.262Z,9.05
2022-08-12T02:58:12.005Z,11.02
2022-08-12T03:00:45.654Z,8.38
2022-08-12T03:03:17.239Z,9.00
2022-08-12T03:05:52.731Z,9.80
2022-08-12T03:08:31.417Z,7.88
2022-08-12T03:11:11.873Z,13.65
2022-08-12T03:13:53.361Z,9.40
2022-08-12T03:16:24.856Z,9.98
2022-08-12T03:18:56.566Z,9.30
2022-08-12T03:21:59.921Z,13.20
2022-08-12T03:24:18.975Z,8.55
2022-08-12T03:26:49.239Z,8.55
2022-08-12T03:29:22.748Z,10.07
2022-08-12T03:34:33.923Z,7.47
2022-08-12T03:37:06.275Z,10.60
2022-08-12T03:39:44.687Z,10.15
2022-08-12T03:42:35.556Z,10.45
2022-08-12T03:45:51.523Z,28.33
2022-08-12T03:48:39.959Z,11.93
2022-08-12T03:51:30.120Z,9.98
2022-08-12T03:54:19.351Z,10.40
2022-08-12T03:57:06.676Z,10.63
2022-08-12T03:59:53.918Z,27.70
2022-08-12T04:02:25.792Z,22.38
2022-08-12T04:04:56.446Z,12.30
2022-08-12T04:07:30.097Z,25.27
2022-08-12T04:10:01.148Z,11.57
2022-08-12T04:12:49.278Z,9.60
2022-08-12T04:15:20.819Z,10.10
2022-08-12T04:18:06.475Z,10.20
2022-08-12T04:20:38.031Z,11.82
2022-08-12T04:23:12.413Z,9.68
2022-08-12T04:25:47.846Z,9.98
2022-08-12T04:28:17.710Z,8.80
2022-08-12T04:30:47.594Z,9.52
2022-08-12T04:33:19.262Z,10.13
2022-08-12T04:35:49.684Z,11.25
2022-08-12T04:38:22.305Z,12.40
2022-08-12T04:40:52.355Z,10.57
2022-08-12T04:43:58.938Z,11.23
2022-08-12T04:46:12.409Z,12.80
2022-08-12T04:48:42.611Z,9.27
2022-08-12T04:51:12.605Z,11.65
2022-08-12T04:53:44.640Z,13.40
2022-08-12T04:56:15.333Z,13.02
2022-08-12T04:58:50.661Z,14.93
2022-08-12T05:01:22.640Z,17.48
2022-08-12T05:03:53.244Z,14.45
2022-08-12T05:06:26.798Z,11.25
2022-08-12T05:08:59.851Z,11.50
2022-08-12T05:11:29.957Z,10.25
2022-08-12T05:14:01.770Z,11.38
2022-08-12T05:16:34.050Z,15.27
2022-08-12T05:19:06.291Z,10.57
2022-08-12T05:21:48.717Z,7.85
2022-08-12T05:24:19.976Z,9.15
2022-08-12T05:26:50.004Z,10.07
2022-08-12T05:30:07.424Z,9.63
2022-08-12T05:32:10.723Z,11.50
2022-08-12T05:34:40.784Z,9.80
2022-08-12T05:37:10.618Z,9.02
2022-08-12T05:39:42.136Z,9.25
2022-08-12T05:42:12.217Z,11.32
2022-08-12T05:44:42.133Z,12.38
2022-08-12T05:47:14.756Z,8.25
2022-08-12T05:49:44.701Z,8.82
2022-08-12T05:52:14.905Z,11.38
2022-08-12T05:54:57.547Z,11.43
2022-08-12T05:57:28.058Z,10.20
2022-08-12T05:59:58.045Z,13.48
2022-08-12T06:02:28.016Z,12.20
2022-08-12T06:05:00.395Z,10.77
2022-08-12T06:08:00.661Z,10.60
2022-08-12T06:10:32.155Z,7.90
2022-08-12T06:13:03.660Z,7.30
2022-08-12T06:15:37.866Z,8.50
2022-08-12T06:18:13.954Z,8.18
2022-08-12T06:20:49.155Z,10.32
2022-08-12T06:23:28.973Z,9.55
2022-08-12T06:26:00.489Z,9.20
2022-08-12T06:28:31.211Z,9.73
2022-08-12T06:33:57.713Z,9.00
2022-08-12T06:36:41.877Z,10.30
2022-08-12T06:39:14.506Z,14.43
2022-08-12T06:42:32.462Z,8.07
2022-08-12T06:44:55.819Z,11.45
2022-08-12T06:47:26.604Z,11.88
2022-08-12T06:49:56.586Z,7.72
2022-08-12T06:52:26.560Z,6.10
2022-08-12T06:54:58.582Z,9.10
2022-08-12T06:58:06.986Z,11.48
2022-08-12T07:00:22.592Z,9.95
2022-08-12T07:03:16.608Z,9.43
2022-08-12T07:05:53.673Z,9.38
2022-08-12T07:08:25.643Z,12.45
2022-08-12T07:10:59.423Z,8.07
2022-08-12T07:14:12.727Z,7.95
2022-08-12T07:16:49.060Z,10.48
2022-08-12T07:19:19.654Z,4.90
2022-08-12T07:22:01.744Z,9.57
2022-08-12T07:24:32.560Z,5.90
2022-08-12T07:27:02.514Z,9.43
2022-08-12T07:29:58.099Z,6.93
2022-08-12T07:32:25.663Z,5.20
2022-08-12T07:34:59.483Z,6.25
2022-08-12T07:37:29.409Z,6.53
2022-08-12T07:40:01.068Z,5.25
2022-08-12T07:42:31.444Z,5.72
2022-08-12T07:45:04.783Z,5.03
2022-08-12T07:50:09.375Z,5.28
2022-08-12T07:52:43.247Z,5.28
2022-08-12T07:55:14.193Z,8.13
2022-08-12T07:57:53.363Z,5.55
2022-08-12T08:00:25.392Z,5.75
2022-08-12T08:02:55.437Z,8.88
2022-08-12T08:05:28.349Z,4.60
2022-08-12T08:08:02.488Z,8.40
2022-08-12T08:10:33.493Z,8.00
2022-08-12T08:13:05.277Z,7.40
2022-08-12T08:16:01.832Z,6.30
2022-08-12T08:18:30.253Z,6.25
2022-08-12T08:21:06.480Z,6.22
2022-08-12T08:23:57.584Z,7.90
2022-08-12T08:26:29.835Z,7.85
2022-08-12T08:28:59.982Z,9.20
2022-08-12T08:31:31.325Z,10.50
2022-08-12T08:34:49.015Z,14.93
2022-08-12T08:36:52.602Z,5.00
2022-08-12T08:39:22.801Z,9.25
2022-08-12T08:42:20.507Z,7.65
2022-08-12T08:44:58.494Z,5.18
2022-08-12T08:47:29.887Z,11.25
2022-08-12T08:50:03.146Z,6.30
2022-08-12T08:52:39.047Z,5.88
2022-08-12T08:55:11.568Z,8.55
2022-08-12T08:57:44.689Z,5.10
2022-08-12T09:00:16.534Z,4.70
2022-08-12T09:02:59.206Z,4.85
2022-08-12T09:06:01.814Z,5.28
2022-08-12T09:08:27.617Z,6.95
2022-08-12T09:12:07.059Z,5.50
2022-08-12T09:17:00.149Z,7.53
2022-08-12T09:19:31.563Z,6.18
2022-08-12T09:22:03.221Z,8.65
2022-08-12T09:24:35.759Z,7.88
2022-08-12T09:27:07.122Z,4.25
2022-08-12T09:30:10.264Z,6.15
2022-08-12T09:33:04.752Z,4.85
2022-08-12T09:35:28.475Z,6.50
2022-08-12T09:38:00.997Z,5.97
2022-08-12T09:40:57.114Z,9.45
2022-08-12T09:43:53.585Z,5.65
2022-08-12T09:46:25.711Z,7.63
2022-08-12T09:48:57.318Z,4.15
2022-08-12T09:51:37.500Z,5.40
2022-08-12T09:54:32.843Z,5.55
2022-08-12T09:58:07.551Z,4.43
2022-08-12T10:00:17.600Z,4.88
2022-08-12T10:03:02.753Z,4.38
2022-08-12T10:06:26.729Z,4.50
2022-08-12T10:08:30.553Z,6.38
2022-08-12T10:11:20.648Z,3.80
2022-08-12T10:13:53.702Z,3.25
2022-08-12T10:16:28.445Z,3.10
2022-08-12T10:19:01.388Z,3.55
2022-08-12T10:21:38.774Z,4.95
2022-08-12T10:24:12.505Z,4.05
2022-08-12T10:27:05.645Z,2.65
2022-08-12T10:30:38.840Z,3.50
2022-08-12T10:32:44.906Z,5.22
2022-08-12T10:35:17.445Z,3.38
2022-08-12T10:38:38.184Z,2.88
2022-08-12T10:41:00.684Z,4.47
2022-08-12T10:43:55.658Z,4.82
2022-08-12T10:46:30.698Z,3.53
2022-08-12T10:49:06.229Z,3.28
2022-08-12T10:52:32.863Z,6.25
2022-08-12T10:54:43.368Z,3.03
2022-08-12T10:57:18.361Z,4.85
2022-08-12T11:00:32.483Z,3.38
2022-08-12T11:04:35.932Z,3.80
2022-08-12T11:07:09.092Z,3.38
2022-08-12T11:08:42.866Z,3.97
2022-08-12T11:12:36.913Z,4.22
2022-08-12T11:14:34.092Z,3.00
2022-08-12T11:17:33.982Z,3.92
2022-08-12T11:19:50.169Z,3.78
2022-08-12T11:22:24.170Z,3.65
2022-08-12T11:24:55.414Z,4.13
2022-08-12T11:27:25.588Z,2.65
2022-08-12T11:30:05.923Z,5.50
2022-08-12T11:32:54.680Z,7.43
2022-08-12T11:35:29.621Z,2.85
2022-08-12T11:38:01.746Z,5.00
2022-08-12T11:40:32.815Z,2.67
2022-08-12T11:43:19.702Z,4.75
2022-08-12T11:45:53.207Z,3.20
2022-08-12T11:48:27.382Z,3.53
2022-08-12T11:51:01.474Z,3.38
2022-08-12T11:53:56.977Z,3.42
2022-08-12T11:56:21.681Z,3.67
2022-08-12T12:02:05.121Z,4.93
2022-08-12T12:04:35.776Z,3.17
2022-08-12T12:07:07.388Z,3.05
2022-08-12T12:09:53.049Z,2.70
2022-08-12T12:12:25.185Z,5.45
2022-08-12T12:14:56.438Z,6.70
2022-08-12T12:17:38.033Z,3.70
2022-08-12T12:20:11.847Z,3.92
2022-08-12T12:22:45.165Z,4.45
2022-08-12T12:25:16.248Z,3.72
2022-08-12T12:30:37.313Z,3.72
2022-08-12T12:33:10.991Z,5.10
2022-08-12T12:36:19.746Z,3.75
2022-08-12T12:38:38.114Z,4.78
2022-08-12T12:41:09.864Z,5.78
2022-08-12T12:44:03.718Z,3.10
2022-08-12T12:46:34.360Z,4.70
2022-08-12T12:49:06.757Z,2.78
2022-08-12T12:52:17.147Z,4.45
2022-08-12T12:54:31.061Z,3.03
2022-08-12T12:57:02.152Z,2.97
2022-08-12T12:59:33.814Z,4.85
2022-08-12T13:02:31.566Z,5.90
2022-08-12T13:05:04.736Z,3.50
2022-08-12T13:07:49.261Z,3.60
2022-08-12T13:10:25.588Z,2.80
2022-08-12T13:14:07.925Z,4.35
2022-08-12T13:15:53.943Z,3.42
2022-08-12T13:18:31.533Z,5.43
2022-08-12T13:21:03.103Z,4.97
2022-08-12T13:23:36.369Z,3.55
2022-08-12T13:26:14.263Z,3.25
2022-08-12T13:28:53.138Z,4.25
2022-08-12T13:31:27.260Z,5.45
2022-08-12T13:34:34.237Z,4.43
2022-08-12T13:36:48.734Z,5.07
2022-08-12T13:39:20.594Z,4.18
2022-08-12T13:41:51.273Z,3.63
2022-08-12T13:44:23.940Z,2.90
2022-08-12T13:46:58.379Z,4.18
2022-08-12T13:49:53.753Z,5.75
2022-08-12T13:52:35.436Z,3.90
2022-08-12T13:55:06.670Z,9.27
2022-08-12T13:57:44.682Z,7.20
2022-08-12T14:00:17.325Z,4.38
2022-08-12T14:02:47.601Z,5.68
2022-08-12T14:05:30.071Z,5.30
2022-08-12T14:08:11.334Z,4.88
2022-08-12T14:10:50.996Z,6.78
2022-08-12T14:14:04.260Z,7.10
2022-08-12T14:16:37.347Z,5.53
2022-08-12T14:19:22.203Z,5.63
2022-08-12T14:21:59.268Z,7.28
2022-08-12T14:24:40.320Z,7.90
2022-08-12T14:27:13.285Z,5.95
2022-08-12T14:30:04.781Z,8.43
2022-08-12T14:32:36.660Z,5.00
2022-08-12T14:35:09.491Z,8.07
2022-08-12T14:37:56.235Z,7.78
2022-08-12T14:40:31.132Z,8.60
2022-08-12T14:45:44.430Z,7.53
2022-08-12T14:48:24.531Z,7.63
2022-08-12T14:52:16.011Z,7.13
2022-08-12T14:54:55.817Z,6.72
2022-08-12T14:59:56.358Z,6.75
2022-08-12T15:02:29.601Z,6.30
2022-08-12T15:05:03.663Z,5.93
2022-08-12T15:07:49.020Z,6.25
2022-08-12T15:10:31.874Z,6.00
2022-08-12T15:13:07.283Z,6.28
2022-08-12T15:15:44.281Z,6.43
2022-08-12T15:18:20.962Z,6.10
2022-08-12T15:20:54.764Z,4.75
2022-08-12T15:23:29.026Z,8.10
2022-08-12T15:26:05.061Z,10.57
2022-08-12T15:28:37.029Z,6.50
2022-08-12T15:31:28.052Z,26.30
2022-08-12T15:34:00.854Z,14.97
2022-08-12T15:36:55.083Z,8.35
2022-08-12T15:39:22.191Z,6.70
2022-08-12T15:41:55.471Z,8.40
2022-08-12T15:47:11.684Z,7.05
2022-08-12T15:49:55.051Z,12.48
2022-08-12T15:52:31.250Z,14.35
2022-08-12T15:55:06.573Z,12.75
2022-08-12T15:57:53.542Z,21.73
2022-08-12T16:00:33.024Z,26.42
2022-08-12T16:03:13.634Z,12.05
2022-08-12T16:06:11.987Z,21.63
2022-08-12T16:08:39.685Z,9.95
2022-08-12T16:11:15.198Z,15.05
2022-08-12T16:13:48.036Z,16.33
2022-08-12T16:16:23.168Z,8.55
2022-08-12T16:18:59.561Z,11.02
2022-08-12T16:21:52.746Z,10.52
2022-08-12T16:24:23.235Z,8.60
2022-08-12T16:26:54.225Z,7.47
2022-08-12T16:29:38.674Z,11.20
2022-08-12T16:32:31.095Z,6.70
2022-08-12T16:35:05.873Z,7.82
2022-08-12T16:38:28.072Z,9.90
2022-08-12T16:40:29.092Z,6.95
2022-08-12T16:43:04.710Z,8.75
2022-08-12T16:46:04.968Z,10.00
2022-08-12T16:48:38.755Z,8.60
2022-08-12T16:51:11.841Z,8.20
2022-08-12T16:53:45.216Z,7.85
2022-08-12T16:58:48.229Z,7.32
2022-08-12T17:01:19.660Z,9.63
2022-08-12T17:04:08.524Z,10.80
2022-08-12T17:06:43.429Z,8.70
2022-08-12T17:09:17.412Z,10.00
2022-08-12T17:11:50.283Z,12.55
2022-08-12T17:14:23.443Z,9.73
2022-08-12T17:16:55.971Z,10.32
2022-08-12T17:20:30.678Z,6.65
2022-08-12T17:22:22.018Z,9.52
2022-08-12T17:24:55.471Z,10.65
2022-08-12T17:27:30.732Z,7.43
2022-08-12T17:30:05.152Z,7.20
2022-08-12T17:32:39.712Z,6.75
2022-08-12T17:35:37.532Z,7.57
2022-08-12T17:38:13.732Z,7.85
2022-08-12T17:40:47.526Z,8.27
2022-08-12T17:43:52.044Z,10.50
2022-08-12T17:46:12.784Z,7.82
2022-08-12T17:48:55.316Z,9.10
2022-08-12T17:51:31.595Z,8.77
2022-08-12T17:54:11.224Z,10.70
2022-08-12T17:56:43.590Z,15.40
2022-08-12T17:59:14.434Z,11.40
2022-08-12T18:02:06.341Z,9.88
2022-08-12T18:04:36.465Z,12.10
2022-08-12T18:07:08.526Z,9.55
2022-08-12T18:09:41.049Z,18.48
2022-08-12T18:12:34.780Z,9.15
2022-08-12T18:15:08.955Z,13.00
2022-08-12T18:20:15.539Z,22.73
2022-08-12T18:22:55.675Z,16.35
2022-08-12T18:26:15.643Z,12.45
2022-08-12T18:28:31.802Z,10.27
2022-08-12T18:31:03.865Z,12.57
2022-08-12T18:33:41.552Z,10.20
2022-08-12T18:36:22.537Z,9.68
2022-08-12T18:38:59.722Z,9.65
2022-08-12T18:41:34.439Z,11.80
2022-08-12T18:44:09.778Z,10.13
2022-08-12T18:46:54.130Z,9.23
2022-08-12T18:49:32.061Z,11.68
2022-08-12T18:52:08.066Z,10.00
2022-08-12T18:54:49.191Z,11.80
2022-08-12T18:58:06.522Z,8.82
2022-08-12T19:00:20.996Z,12.35
2022-08-12T19:02:53.798Z,10.45
2022-08-12T19:05:52.909Z,13.45
2022-08-12T19:08:16.399Z,11.90
2022-08-12T19:10:51.131Z,8.95
2022-08-12T19:13:42.945Z,9.88
2022-08-12T19:16:21.485Z,8.68
2022-08-12T19:18:55.248Z,8.70
2022-08-12T19:21:25.346Z,13.20
2022-08-12T19:24:09.585Z,12.57
2022-08-12T19:26:43.473Z,11.00
2022-08-12T19:31:57.772Z,12.55
2022-08-12T19:37:38.348Z,9.38
2022-08-12T19:40:20.316Z,10.57
2022-08-12T19:43:13.383Z,11.60
2022-08-12T19:45:51.576Z,9.50
2022-08-12T19:48:23.818Z,14.80
2022-08-12T19:50:55.603Z,11.18
2022-08-12T19:53:27.521Z,9.48
2022-08-12T19:55:58.688Z,10.05
2022-08-12T19:58:29.960Z,10.23
2022-08-12T20:01:00.362Z,9.52
2022-08-12T20:03:38.432Z,12.40
2022-08-12T20:06:13.803Z,11.40
2022-08-12T20:08:55.609Z,13.00
2022-08-12T20:12:15.111Z,10.48
2022-08-12T20:14:20.963Z,10.88
2022-08-12T20:20:00.989Z,11.95
2022-08-12T20:22:29.489Z,13.80
2022-08-12T20:25:09.085Z,11.90
2022-08-12T20:28:04.328Z,12.88
2022-08-12T20:30:53.184Z,10.02
2022-08-12T20:33:50.409Z,14.25
2022-08-12T20:36:42.923Z,11.73
2022-08-12T20:39:37.490Z,12.02
2022-08-12T20:42:07.241Z,10.90
2022-08-12T20:44:40.551Z,9.05
2022-08-12T20:47:19.785Z,11.50
2022-08-12T20:49:55.350Z,10.77
2022-08-12T20:52:29.925Z,11.35
2022-08-12T20:55:01.990Z,14.48
2022-08-12T20:57:38.506Z,11.20
2022-08-12T21:00:18.092Z,11.07
2022-08-12T21:06:12.668Z,13.25
2022-08-12T21:08:43.981Z,12.77
2022-08-12T21:11:13.874Z,16.80
2022-08-12T21:13:44.214Z,11.45
2022-08-12T21:16:14.896Z,14.63
2022-08-12T21:19:02.983Z,12.90
2022-08-12T21:21:47.059Z,10.77
2022-08-12T21:24:21.919Z,11.65
2022-08-12T21:27:03.887Z,16.38
2022-08-12T21:29:50.094Z,15.73
2022-08-12T21:32:39.366Z,10.38
2022-08-12T21:35:20.430Z,12.93
2022-08-12T21:37:54.793Z,13.52
2022-08-12T21:40:37.189Z,13.38
2022-08-12T21:43:19.679Z,15.70
2022-08-12T21:46:00.345Z,14.43
2022-08-12T21:48:30.791Z,16.02
2022-08-12T21:51:02.001Z,10.90
2022-08-12T21:54:06.404Z,12.95
2022-08-12T21:56:34.349Z,12.45
2022-08-12T21:59:13.613Z,12.43
2022-08-12T22:01:48.989Z,12.88
2022-08-12T22:04:37.174Z,15.70
2022-08-12T22:07:08.593Z,12.60
2022-08-12T22:09:43.554Z,11.13
2022-08-12T22:12:31.681Z,11.10
2022-08-12T22:15:03.866Z,13.13
2022-08-12T22:17:49.552Z,9.85
2022-08-12T22:20:21.948Z,10.77
2022-08-12T22:22:53.941Z,12.50
2022-08-12T22:25:27.874Z,13.82
2022-08-12T22:28:14.457Z,10.02
2022-08-12T22:31:02.929Z,9.60
2022-08-12T22:33:54.057Z,11.73
2022-08-12T22:36:29.220Z,10.95
2022-08-12T22:39:00.946Z,9.63
2022-08-12T22:41:48.128Z,9.65
2022-08-12T22:44:54.693Z,8.60
2022-08-12T22:47:55.458Z,13.65
2022-08-12T22:50:28.855Z,11.20
2022-08-12T22:53:15.311Z,11.38
2022-08-12T22:56:06.089Z,9.00
2022-08-12T22:58:40.500Z,9.25
2022-08-12T23:01:21.080Z,13.50
2022-08-12T23:03:53.938Z,9.30
2022-08-12T23:06:26.909Z,15.43
2022-08-12T23:08:57.104Z,14.37
2022-08-12T23:11:36.266Z,11.40
2022-08-12T23:14:12.730Z,11.75
2022-08-12T23:16:45.243Z,9.70
2022-08-12T23:19:23.363Z,12.18
2022-08-12T23:22:05.397Z,9.68
2022-08-12T23:24:55.854Z,10.23
2022-08-12T23:27:52.362Z,9.77
2022-08-12T23:30:31.028Z,10.82
2022-08-12T23:33:01.561Z,10.50
2022-08-12T23:35:53.645Z,13.55
2022-08-12T23:41:05.805Z,10.70
2022-08-12T23:43:39.951Z,9.43
2022-08-12T23:46:12.431Z,14.10
2022-08-12T23:48:51.651Z,12.48
2022-08-12T23:54:00.195Z,13.98
2022-08-12T23:56:33.605Z,8.90
2022-08-12T23:59:07.671Z,14.07
